Time;durP1;ratioP1;P1;durP2;ratioP2;P2;SDS_P1;SDS_P2;PMS_P1;PMS_P2;Temp;Humidity;BMP_temperature;BMP_pressure;BME280_temperature;BME280_humidity;BME280_pressure;Samples;Min_cycle;Max_cycle;Signal;HPM_P1;HPM_P2
2022/03/02 00:00:13;;;;;;;19.60;11.60;;;;;;;;;;5053613;28;20406;-78
2022/03/02 00:02:41;;;;;;;19.33;11.90;;;;;;;;;;5053591;28;20888;-74
2022/03/02 00:05:08;;;;;;;16.73;12.47;;;;;;;;;;5053114;28;20506;-78
2022/03/02 00:07:34;;;;;;;17.30;10.97;;;;;;;;;;5052205;28;20415;-78
2022/03/02 00:10:00;;;;;;;16.43;10.23;;;;;;;;;;5053450;28;20498;-77
2022/03/02 00:12:26;;;;;;;23.23;11.60;;;;;;;;;;5053429;28;20505;-77
2022/03/02 00:14:52;;;;;;;16.03;11.30;;;;;;;;;;5053389;28;20411;-77
2022/03/02 00:17:18;;;;;;;21.73;12.13;;;;;;;;;;5053438;28;20418;-77
2022/03/02 00:19:45;;;;;;;21.13;11.27;;;;;;;;;;5053528;28;20426;-76
2022/03/02 00:22:11;;;;;;;16.63;10.17;;;;;;;;;;5053290;28;20446;-77
2022/03/02 00:24:37;;;;;;;15.23;11.50;;;;;;;;;;5052950;28;20474;-77
2022/03/02 00:27:03;;;;;;;18.87;12.10;;;;;;;;;;5053213;28;20407;-76
2022/03/02 00:29:29;;;;;;;16.93;12.13;;;;;;;;;;5053486;28;20463;-78
2022/03/02 00:31:55;;;;;;;21.03;11.30;;;;;;;;;;5053322;28;20898;-78
2022/03/02 00:34:21;;;;;;;18.10;11.23;;;;;;;;;;5053145;28;20409;-81
2022/03/02 00:36:47;;;;;;;19.03;11.70;;;;;;;;;;5053258;28;20473;-78
2022/03/02 00:39:14;;;;;;;22.33;12.10;;;;;;;;;;5053056;28;20413;-77
2022/03/02 00:41:40;;;;;;;16.53;11.03;;;;;;;;;;5053078;28;20881;-75
2022/03/02 00:44:06;;;;;;;16.43;11.20;;;;;;;;;;5052944;28;20613;-77
2022/03/02 00:46:32;;;;;;;18.57;11.60;;;;;;;;;;5051862;28;20508;-62
2022/03/02 00:48:59;;;;;;;17.43;10.70;;;;;;;;;;5054937;28;20471;-75
2022/03/02 00:51:26;;;;;;;17.63;11.13;;;;;;;;;;5057073;28;20423;-75
2022/03/02 00:53:52;;;;;;;15.70;10.17;;;;;;;;;;5057010;28;20501;-77
2022/03/02 00:56:19;;;;;;;13.17;10.40;;;;;;;;;;5055889;28;20421;-76
2022/03/02 00:58:45;;;;;;;18.50;10.97;;;;;;;;;;5056772;28;20473;-77
2022/03/02 01:01:11;;;;;;;17.00;11.60;;;;;;;;;;5056951;28;20458;-76
2022/03/02 01:03:37;;;;;;;18.33;12.10;;;;;;;;;;5056786;28;20805;-61
2022/03/02 01:06:05;;;;;;;20.93;11.47;;;;;;;;;;5056692;28;20477;-65
2022/03/02 01:08:31;;;;;;;17.93;11.00;;;;;;;;;;5056778;28;20453;-63
2022/03/02 01:10:57;;;;;;;19.87;11.57;;;;;;;;;;5055390;28;20883;-61
2022/03/02 01:13:23;;;;;;;19.00;12.20;;;;;;;;;;5056577;28;20414;-61
2022/03/02 01:15:49;;;;;;;20.90;11.17;;;;;;;;;;5056746;28;20406;-64
2022/03/02 01:18:16;;;;;;;17.10;11.00;;;;;;;;;;5056550;28;20398;-61
2022/03/02 01:20:42;;;;;;;15.33;9.93;;;;;;;;;;5056601;28;20795;-64
2022/03/02 01:23:08;;;;;;;18.27;10.73;;;;;;;;;;5056489;28;20493;-62
2022/03/02 01:25:34;;;;;;;18.43;11.60;;;;;;;;;;5055122;28;20470;-60
2022/03/02 01:28:00;;;;;;;22.00;12.30;;;;;;;;;;5056286;28;20437;-61
2022/03/02 01:30:26;;;;;;;18.50;11.40;;;;;;;;;;5056574;28;20447;-61
2022/03/02 01:32:53;;;;;;;17.07;11.50;;;;;;;;;;5055995;28;20866;-60
2022/03/02 01:35:19;;;;;;;16.23;10.50;;;;;;;;;;5056194;28;20430;-63
2022/03/02 01:37:45;;;;;;;18.50;11.83;;;;;;;;;;5056187;28;20395;-61
2022/03/02 01:40:12;;;;;;;21.00;10.90;;;;;;;;;;5056249;28;20406;-63
2022/03/02 01:42:38;;;;;;;16.00;11.00;;;;;;;;;;5056171;28;20530;-61
2022/03/02 01:45:05;;;;;;;22.73;13.00;;;;;;;;;;5055886;28;20538;-61
2022/03/02 01:47:31;;;;;;;14.47;10.37;;;;;;;;;;5056024;28;20488;-61
2022/03/02 01:49:57;;;;;;;16.83;11.27;;;;;;;;;;5054782;28;20528;-61
2022/03/02 01:52:23;;;;;;;17.50;11.63;;;;;;;;;;5055916;28;20411;-68
2022/03/02 01:54:49;;;;;;;17.90;11.93;;;;;;;;;;5055843;28;20885;-70
2022/03/02 01:57:15;;;;;;;17.23;11.00;;;;;;;;;;5055883;28;20492;-73
2022/03/02 01:59:41;;;;;;;18.90;11.00;;;;;;;;;;5055746;28;20870;-66
2022/03/02 02:02:07;;;;;;;15.90;10.70;;;;;;;;;;5055861;28;20778;-67
2022/03/02 02:04:33;;;;;;;19.43;11.30;;;;;;;;;;5055557;28;20479;-69
2022/03/02 02:06:59;;;;;;;14.40;10.27;;;;;;;;;;5055597;28;21019;-65
2022/03/02 02:09:25;;;;;;;17.10;11.10;;;;;;;;;;5054364;28;20913;-69
2022/03/02 02:11:51;;;;;;;15.80;10.93;;;;;;;;;;5055551;28;20427;-62
2022/03/02 02:14:17;;;;;;;17.83;10.63;;;;;;;;;;5055510;28;20489;-69
2022/03/02 02:16:44;;;;;;;17.70;10.63;;;;;;;;;;5054268;28;20415;-64
2022/03/02 02:19:10;;;;;;;20.70;11.23;;;;;;;;;;5054210;28;20408;-65
2022/03/02 02:21:36;;;;;;;17.27;11.00;;;;;;;;;;5055444;28;20551;-60
2022/03/02 02:24:03;;;;;;;17.30;10.70;;;;;;;;;;5055238;28;20493;-60
2022/03/02 02:26:29;;;;;;;18.47;10.30;;;;;;;;;;5055344;28;20426;-59
2022/03/02 02:28:55;;;;;;;18.90;11.20;;;;;;;;;;5055226;28;20437;-59
2022/03/02 02:31:21;;;;;;;15.30;9.63;;;;;;;;;;5055010;28;20565;-63
2022/03/02 02:33:47;;;;;;;17.33;10.67;;;;;;;;;;5055120;28;20402;-62
2022/03/02 02:36:14;;;;;;;17.53;12.27;;;;;;;;;;5055241;28;20411;-59
2022/03/02 02:38:41;;;;;;;21.53;11.53;;;;;;;;;;5055194;28;20431;-60
2022/03/02 02:41:07;;;;;;;16.70;10.47;;;;;;;;;;5055130;28;20490;-60
2022/03/02 02:43:34;;;;;;;16.67;10.60;;;;;;;;;;5054862;28;20423;-60
2022/03/02 02:46:00;;;;;;;16.07;10.43;;;;;;;;;;5054921;28;20411;-71
2022/03/02 02:48:26;;;;;;;18.67;10.93;;;;;;;;;;5055003;28;20403;-68
2022/03/02 02:50:52;;;;;;;15.13;10.20;;;;;;;;;;5054967;28;20415;-69
2022/03/02 02:53:18;;;;;;;19.83;11.80;;;;;;;;;;5054686;28;20493;-72
2022/03/02 02:55:45;;;;;;;16.47;10.70;;;;;;;;;;5053445;28;20420;-69
2022/03/02 02:58:11;;;;;;;19.33;10.90;;;;;;;;;;5054761;28;20442;-67
2022/03/02 03:00:39;;;;;;;19.37;10.73;;;;;;;;;;5053460;28;20764;-73
2022/03/02 03:03:05;;;;;;;17.00;10.33;;;;;;;;;;5054484;28;20430;-76
2022/03/02 03:05:32;;;;;;;20.30;11.83;;;;;;;;;;5054216;28;20542;-74
2022/03/02 03:08:06;;;;;;;16.90;11.87;;;;;;;;;;5054503;28;20410;-70
2022/03/02 03:10:33;;;;;;;19.43;11.67;;;;;;;;;;5054435;28;20419;-72
2022/03/02 03:12:59;;;;;;;18.50;10.67;;;;;;;;;;5053709;28;20417;-77
2022/03/02 03:15:25;;;;;;;18.23;11.50;;;;;;;;;;5054414;28;20410;-75
2022/03/02 03:17:52;;;;;;;19.10;11.60;;;;;;;;;;5054386;28;20846;-74
2022/03/02 03:20:19;;;;;;;18.90;12.00;;;;;;;;;;5052959;28;20790;-72
2022/03/02 03:22:46;;;;;;;17.90;10.70;;;;;;;;;;5054315;28;20443;-76
2022/03/02 03:25:12;;;;;;;19.73;11.70;;;;;;;;;;5052805;28;20903;-77
2022/03/02 03:27:39;;;;;;;19.77;11.40;;;;;;;;;;5054112;28;20439;-67
2022/03/02 03:30:07;;;;;;;20.57;11.57;;;;;;;;;;5054012;28;20991;-70
2022/03/02 03:32:33;;;;;;;22.93;11.03;;;;;;;;;;5053898;28;20397;-65
2022/03/02 03:34:59;;;;;;;20.60;11.73;;;;;;;;;;5053989;28;20421;-70
2022/03/02 03:37:25;;;;;;;25.70;10.63;;;;;;;;;;5052648;28;20457;-65
2022/03/02 03:39:51;;;;;;;20.00;12.10;;;;;;;;;;5054028;28;20419;-60
2022/03/02 03:42:17;;;;;;;18.50;10.57;;;;;;;;;;5054011;28;20405;-62
2022/03/02 03:44:43;;;;;;;17.03;10.97;;;;;;;;;;5052581;28;20473;-61
2022/03/02 03:47:09;;;;;;;16.47;10.27;;;;;;;;;;5053827;28;20420;-62
2022/03/02 03:49:36;;;;;;;19.53;11.40;;;;;;;;;;5053756;28;20414;-61
2022/03/02 03:52:02;;;;;;;16.07;11.00;;;;;;;;;;5053536;28;20432;-61
2022/03/02 03:54:28;;;;;;;21.53;11.57;;;;;;;;;;5053665;28;20432;-61
2022/03/02 03:56:54;;;;;;;18.60;10.90;;;;;;;;;;5053509;28;20407;-60
2022/03/02 03:59:20;;;;;;;19.30;12.30;;;;;;;;;;5053540;28;20442;-61
2022/03/02 04:01:46;;;;;;;21.23;11.60;;;;;;;;;;5053536;28;20406;-61
2022/03/02 04:04:12;;;;;;;21.13;11.70;;;;;;;;;;5053456;28;20486;-61
2022/03/02 04:06:38;;;;;;;16.50;10.50;;;;;;;;;;5053303;28;20974;-61
2022/03/02 04:09:04;;;;;;;22.57;11.80;;;;;;;;;;5053418;28;20418;-60
2022/03/02 04:11:31;;;;;;;18.80;9.67;;;;;;;;;;5053329;28;20407;-62
2022/03/02 04:13:57;;;;;;;19.30;10.67;;;;;;;;;;5053385;28;20494;-64
2022/03/02 04:16:23;;;;;;;18.50;10.73;;;;;;;;;;5053399;28;20823;-77
2022/03/02 04:18:49;;;;;;;15.80;10.33;;;;;;;;;;5053421;28;20882;-75
2022/03/02 04:21:15;;;;;;;16.43;11.03;;;;;;;;;;5053387;28;20442;-77
2022/03/02 04:23:41;;;;;;;18.63;10.20;;;;;;;;;;5052230;28;20418;-77
2022/03/02 04:26:07;;;;;;;17.47;10.87;;;;;;;;;;5053253;28;20421;-76
2022/03/02 04:28:33;;;;;;;18.53;11.17;;;;;;;;;;5053114;28;20494;-77
2022/03/02 04:30:59;;;;;;;21.20;10.93;;;;;;;;;;5053203;28;20415;-76
2022/03/02 04:33:25;;;;;;;22.63;11.23;;;;;;;;;;5051870;28;20419;-65
2022/03/02 04:35:51;;;;;;;19.87;12.03;;;;;;;;;;5053220;28;20446;-76
2022/03/02 04:38:17;;;;;;;19.37;11.37;;;;;;;;;;5053094;28;20412;-76
2022/03/02 04:40:43;;;;;;;14.70;10.43;;;;;;;;;;5053142;28;20934;-77
2022/03/02 04:43:09;;;;;;;18.70;10.80;;;;;;;;;;5051885;28;20416;-77
2022/03/02 04:45:35;;;;;;;15.80;10.60;;;;;;;;;;5053095;28;20524;-77
2022/03/02 04:48:01;;;;;;;18.80;11.37;;;;;;;;;;5053228;28;20411;-62
2022/03/02 04:50:28;;;;;;;16.87;11.17;;;;;;;;;;5053118;28;20433;-67
2022/03/02 04:52:55;;;;;;;15.17;10.50;;;;;;;;;;5052858;28;20890;-67
2022/03/02 04:55:21;;;;;;;20.57;11.90;;;;;;;;;;5053186;28;20504;-61
2022/03/02 04:57:48;;;;;;;20.93;11.17;;;;;;;;;;5052798;28;20430;-67
2022/03/02 05:00:14;;;;;;;17.27;10.30;;;;;;;;;;5052915;28;20949;-72
2022/03/02 05:02:41;;;;;;;16.03;9.97;;;;;;;;;;5052885;28;20509;-60
2022/03/02 05:05:08;;;;;;;20.20;10.33;;;;;;;;;;5052512;28;20495;-61
2022/03/02 05:07:34;;;;;;;14.70;10.60;;;;;;;;;;5052885;28;20452;-61
2022/03/02 05:10:00;;;;;;;19.70;10.83;;;;;;;;;;5051606;28;20428;-61
2022/03/02 05:12:26;;;;;;;22.07;12.60;;;;;;;;;;5051439;28;20751;-64
2022/03/02 05:14:52;;;;;;;19.20;10.27;;;;;;;;;;5052696;28;20915;-61
2022/03/02 05:17:18;;;;;;;17.40;10.13;;;;;;;;;;5052708;28;20420;-61
2022/03/02 05:19:44;;;;;;;18.90;11.00;;;;;;;;;;5052817;28;20418;-61
2022/03/02 05:22:10;;;;;;;20.00;11.00;;;;;;;;;;5052692;28;20504;-61
2022/03/02 05:24:36;;;;;;;17.63;10.50;;;;;;;;;;5052476;28;20829;-60
2022/03/02 05:27:03;;;;;;;17.80;10.27;;;;;;;;;;5052506;28;20567;-60
2022/03/02 05:29:29;;;;;;;19.97;12.57;;;;;;;;;;5052520;28;20422;-59
2022/03/02 05:31:55;;;;;;;22.97;11.60;;;;;;;;;;5052557;28;20494;-71
2022/03/02 05:34:21;;;;;;;15.60;10.67;;;;;;;;;;5052822;28;20410;-73
2022/03/02 05:36:47;;;;;;;19.67;11.70;;;;;;;;;;5056405;28;20417;-76
2022/03/02 05:39:13;;;;;;;18.63;11.13;;;;;;;;;;5054986;28;20414;-77
2022/03/02 05:41:39;;;;;;;17.00;10.27;;;;;;;;;;5056178;28;20868;-75
2022/03/02 05:44:07;;;;;;;19.33;10.50;;;;;;;;;;5054678;28;20459;-65
2022/03/02 05:46:34;;;;;;;16.37;10.70;;;;;;;;;;5056085;28;20517;-76
2022/03/02 05:49:00;;;;;;;17.73;10.73;;;;;;;;;;5056204;28;20413;-74
2022/03/02 05:51:26;;;;;;;20.47;12.00;;;;;;;;;;5055939;28;20411;-76
2022/03/02 05:53:52;;;;;;;20.40;11.93;;;;;;;;;;5055976;28;20411;-77
2022/03/02 05:56:18;;;;;;;17.93;11.17;;;;;;;;;;5056143;28;20886;-69
2022/03/02 05:58:44;;;;;;;17.40;11.20;;;;;;;;;;5054888;28;20876;-76
2022/03/02 06:01:10;;;;;;;24.70;12.30;;;;;;;;;;5055902;28;20459;-69
2022/03/02 06:03:36;;;;;;;16.63;11.30;;;;;;;;;;5055819;28;20439;-76
2022/03/02 06:06:04;;;;;;;17.07;11.20;;;;;;;;;;5055684;28;20903;-66
2022/03/02 06:08:30;;;;;;;19.90;11.27;;;;;;;;;;5055763;28;20905;-73
2022/03/02 06:10:56;;;;;;;16.50;11.40;;;;;;;;;;5054319;28;20419;-74
2022/03/02 06:13:22;;;;;;;16.53;11.67;;;;;;;;;;5055609;28;20497;-72
2022/03/02 06:15:48;;;;;;;21.60;12.70;;;;;;;;;;5055575;28;20492;-75
2022/03/02 06:18:14;;;;;;;17.73;11.70;;;;;;;;;;5055495;28;20442;-76
2022/03/02 06:20:42;;;;;;;16.23;11.77;;;;;;;;;;5055609;28;20415;-64
2022/03/02 06:23:08;;;;;;;23.47;11.90;;;;;;;;;;5055303;28;20486;-61
2022/03/02 06:25:34;;;;;;;22.13;12.23;;;;;;;;;;5055454;28;20459;-61
2022/03/02 06:28:00;;;;;;;22.07;12.00;;;;;;;;;;5055199;28;20475;-61
2022/03/02 06:30:26;;;;;;;18.20;11.30;;;;;;;;;;5055169;28;20508;-61
2022/03/02 06:32:53;;;;;;;17.83;11.67;;;;;;;;;;5053922;28;20414;-65
2022/03/02 06:35:19;;;;;;;28.40;12.23;;;;;;;;;;5055260;28;20978;-61
2022/03/02 06:37:46;;;;;;;19.90;11.50;;;;;;;;;;5055203;28;20409;-64
2022/03/02 06:40:13;;;;;;;20.03;12.07;;;;;;;;;;5055257;28;20842;-61
2022/03/02 06:42:39;;;;;;;19.23;11.60;;;;;;;;;;5055018;28;20462;-63
2022/03/02 06:45:08;;;;;;;19.30;12.20;;;;;;;;;;5054990;28;20826;-62
2022/03/02 06:47:38;;;;;;;23.80;12.47;;;;;;;;;;5054054;28;20406;-61
2022/03/02 06:50:04;;;;;;;20.97;13.37;;;;;;;;;;5055289;28;20418;-60
2022/03/02 06:52:33;;;;;;;23.07;12.23;;;;;;;;;;5054753;28;20403;-60
2022/03/02 06:55:01;;;;;;;23.20;11.23;;;;;;;;;;5054773;28;20415;-60
2022/03/02 06:57:28;;;;;;;24.03;12.97;;;;;;;;;;5054732;28;20520;-61
2022/03/02 06:59:59;;;;;;;18.53;11.93;;;;;;;;;;5054793;28;20600;-60
2022/03/02 07:02:28;;;;;;;21.80;13.20;;;;;;;;;;5054805;28;20408;-60
2022/03/02 07:04:56;;;;;;;19.57;11.80;;;;;;;;;;5054400;28;20477;-60
2022/03/02 07:07:22;;;;;;;19.87;11.90;;;;;;;;;;5054769;28;20404;-60
2022/03/02 07:09:48;;;;;;;20.67;12.40;;;;;;;;;;5054646;28;20416;-60
2022/03/02 07:12:16;;;;;;;18.63;12.27;;;;;;;;;;5054360;28;20771;-63
2022/03/02 07:14:42;;;;;;;20.73;12.50;;;;;;;;;;5054350;28;20502;-60
2022/03/02 07:17:08;;;;;;;19.47;11.90;;;;;;;;;;5054403;28;20609;-61
2022/03/02 07:19:34;;;;;;;19.47;12.53;;;;;;;;;;5054531;28;20407;-60
2022/03/02 07:22:05;;;;;;;22.33;12.80;;;;;;;;;;5054244;28;21012;-60
2022/03/02 07:24:36;;;;;;;20.30;12.97;;;;;;;;;;5054179;28;20490;-61
2022/03/02 07:27:02;;;;;;;22.43;13.03;;;;;;;;;;5054260;28;20442;-61
2022/03/02 07:29:28;;;;;;;26.10;13.70;;;;;;;;;;5054119;28;20898;-60
2022/03/02 07:31:57;;;;;;;17.83;12.37;;;;;;;;;;5054001;28;20403;-60
2022/03/02 07:34:24;;;;;;;26.60;12.23;;;;;;;;;;5052836;28;20478;-62
2022/03/02 07:36:50;;;;;;;26.10;14.10;;;;;;;;;;5054097;28;20850;-64
2022/03/02 07:39:16;;;;;;;20.03;12.33;;;;;;;;;;5052807;28;20424;-62
2022/03/02 07:41:43;;;;;;;20.97;12.27;;;;;;;;;;5053929;28;20425;-70
2022/03/02 07:44:09;;;;;;;23.93;12.60;;;;;;;;;;5053857;28;20454;-69
2022/03/02 07:46:35;;;;;;;30.47;14.33;;;;;;;;;;5054053;28;20414;-70
2022/03/02 07:49:02;;;;;;;27.87;13.30;;;;;;;;;;5053965;28;20456;-73
2022/03/02 07:51:28;;;;;;;22.83;13.90;;;;;;;;;;5053684;28;20500;-68
2022/03/02 07:54:00;;;;;;;19.37;12.40;;;;;;;;;;5053829;28;20827;-74
2022/03/02 07:56:28;;;;;;;21.80;12.70;;;;;;;;;;5053748;28;20406;-61
2022/03/02 07:58:54;;;;;;;27.27;14.63;;;;;;;;;;5053344;28;20463;-76
2022/03/02 08:01:20;;;;;;;23.67;13.83;;;;;;;;;;5053636;28;20791;-70
2022/03/02 08:03:46;;;;;;;23.10;13.53;;;;;;;;;;5053455;28;20399;-70
2022/03/02 08:06:13;;;;;;;28.00;14.57;;;;;;;;;;5053305;28;20457;-70
2022/03/02 08:08:39;;;;;;;23.80;13.60;;;;;;;;;;5053504;28;20407;-73
2022/03/02 08:11:06;;;;;;;20.57;13.70;;;;;;;;;;5053329;28;20414;-71
2022/03/02 08:13:33;;;;;;;24.77;14.23;;;;;;;;;;5053400;28;20436;-67
2022/03/02 08:16:00;;;;;;;20.00;13.40;;;;;;;;;;5053397;28;20411;-74
2022/03/02 08:18:26;;;;;;;21.20;13.17;;;;;;;;;;5053503;28;20422;-62
2022/03/02 08:20:53;;;;;;;26.23;15.20;;;;;;;;;;5052434;28;20430;-66
2022/03/02 08:23:20;;;;;;;21.97;13.97;;;;;;;;;;5053212;28;20391;-73
2022/03/02 08:25:53;;;;;;;25.70;15.80;;;;;;;;;;5053360;28;20527;-70
2022/03/02 08:28:20;;;;;;;19.53;12.80;;;;;;;;;;5053209;28;20822;-69
2022/03/02 08:30:49;;;;;;;27.30;14.47;;;;;;;;;;5053187;28;20423;-65
2022/03/02 08:33:18;;;;;;;25.20;15.00;;;;;;;;;;5051943;28;20407;-73
2022/03/02 08:35:45;;;;;;;26.00;15.73;;;;;;;;;;5053329;28;20795;-74
2022/03/02 08:38:11;;;;;;;27.50;14.90;;;;;;;;;;5053131;28;20905;-67
2022/03/02 08:40:38;;;;;;;27.03;14.70;;;;;;;;;;5053062;28;20906;-66
2022/03/02 08:43:05;;;;;;;23.60;14.50;;;;;;;;;;5053058;28;20810;-62
2022/03/02 08:45:32;;;;;;;26.43;15.07;;;;;;;;;;5053062;28;20470;-64
2022/03/02 08:48:03;;;;;;;21.40;14.10;;;;;;;;;;5051752;28;20407;-64
2022/03/02 08:50:29;;;;;;;26.30;16.27;;;;;;;;;;5053004;28;20814;-63
2022/03/02 08:52:56;;;;;;;22.13;15.33;;;;;;;;;;5052871;28;20973;-64
2022/03/02 08:55:23;;;;;;;29.23;15.10;;;;;;;;;;5052978;28;20410;-63
2022/03/02 08:57:51;;;;;;;31.10;15.13;;;;;;;;;;5052845;28;20445;-61
2022/03/02 09:00:17;;;;;;;23.27;14.00;;;;;;;;;;5052848;28;20421;-61
2022/03/02 09:02:43;;;;;;;23.30;15.00;;;;;;;;;;5052678;28;20421;-63
2022/03/02 09:05:09;;;;;;;26.50;14.73;;;;;;;;;;5052582;28;20481;-59
2022/03/02 09:07:36;;;;;;;23.10;14.37;;;;;;;;;;5052932;28;20918;-63
2022/03/02 09:10:02;;;;;;;31.53;14.73;;;;;;;;;;5054471;28;20504;-62
2022/03/02 09:12:28;;;;;;;28.60;14.20;;;;;;;;;;5056707;28;20880;-66
2022/03/02 09:14:55;;;;;;;27.33;15.80;;;;;;;;;;5056816;28;20510;-63
2022/03/02 09:17:25;;;;;;;33.57;16.57;;;;;;;;;;5056700;28;20406;-76
2022/03/02 09:19:55;;;;;;;23.93;15.20;;;;;;;;;;5056760;28;20915;-71
2022/03/02 09:22:22;;;;;;;25.80;17.07;;;;;;;;;;5056505;28;20405;-72
2022/03/02 09:24:48;;;;;;;26.67;15.33;;;;;;;;;;5056543;28;20551;-70
2022/03/02 09:27:16;;;;;;;27.20;16.37;;;;;;;;;;5056416;28;20777;-72
2022/03/02 09:29:43;;;;;;;28.93;16.67;;;;;;;;;;5056604;28;20414;-66
2022/03/02 09:32:11;;;;;;;28.23;15.37;;;;;;;;;;5056380;28;20405;-70
2022/03/02 09:34:39;;;;;;;26.47;15.17;;;;;;;;;;5056464;28;20409;-74
2022/03/02 09:37:06;;;;;;;23.40;14.90;;;;;;;;;;5055132;28;20417;-69
2022/03/02 09:39:34;;;;;;;23.63;14.10;;;;;;;;;;5056415;28;20920;-73
2022/03/02 09:42:00;;;;;;;22.13;14.60;;;;;;;;;;5056140;28;20915;-73
2022/03/02 09:44:31;;;;;;;23.00;14.83;;;;;;;;;;5056129;28;20522;-70
2022/03/02 09:47:00;;;;;;;20.97;13.70;;;;;;;;;;5056238;28;20893;-64
2022/03/02 09:49:29;;;;;;;24.90;13.87;;;;;;;;;;5056357;28;20402;-62
2022/03/02 09:52:06;;;;;;;22.80;13.53;;;;;;;;;;5056026;28;20828;-65
2022/03/02 09:54:36;;;;;;;19.23;13.00;;;;;;;;;;5055960;28;20797;-61
2022/03/02 09:57:03;;;;;;;18.40;13.87;;;;;;;;;;5054897;28;20838;-64
2022/03/02 09:59:32;;;;;;;19.93;12.87;;;;;;;;;;5056097;28;20425;-61
2022/03/02 10:02:00;;;;;;;23.50;13.60;;;;;;;;;;5055929;28;20438;-64
2022/03/02 10:04:29;;;;;;;19.37;13.67;;;;;;;;;;5055798;28;20477;-61
2022/03/02 10:07:26;;;;;;;23.17;14.30;;;;;;;;;;5055818;28;20865;-67
2022/03/02 10:09:51;;;;;;;25.00;14.33;;;;;;;;;;5055836;28;20430;-62
2022/03/02 10:12:20;;;;;;;21.93;14.83;;;;;;;;;;5055670;28;20402;-62
2022/03/02 10:14:46;;;;;;;20.37;13.63;;;;;;;;;;5055646;28;20547;-66
2022/03/02 10:17:16;;;;;;;23.20;14.20;;;;;;;;;;5055900;28;20499;-75
2022/03/02 10:19:45;;;;;;;21.50;13.90;;;;;;;;;;5055592;28;20547;-77
2022/03/02 10:22:23;;;;;;;19.53;12.93;;;;;;;;;;5055597;28;20410;-70
2022/03/02 10:24:50;;;;;;;20.90;13.40;;;;;;;;;;5055258;28;20815;-66
2022/03/02 10:27:27;;;;;;;21.63;13.07;;;;;;;;;;5055431;28;20813;-66
2022/03/02 10:30:02;;;;;;;19.90;13.53;;;;;;;;;;5055458;28;20819;-75
2022/03/02 10:32:31;;;;;;;19.50;13.07;;;;;;;;;;5055302;28;20908;-74
2022/03/02 10:35:03;;;;;;;20.80;13.77;;;;;;;;;;5055370;28;20473;-72
2022/03/02 10:37:30;;;;;;;18.40;12.93;;;;;;;;;;5055392;28;20444;-77
2022/03/02 10:40:07;;;;;;;23.20;13.53;;;;;;;;;;5055201;28;20501;-73
2022/03/02 10:42:38;;;;;;;24.97;13.63;;;;;;;;;;5055045;28;20456;-65
2022/03/02 10:45:14;;;;;;;16.97;12.50;;;;;;;;;;5055116;28;20483;-78
2022/03/02 10:47:47;;;;;;;21.23;12.83;;;;;;;;;;5055050;28;20397;-68
2022/03/02 10:50:13;;;;;;;21.83;13.43;;;;;;;;;;5053873;28;20421;-73
2022/03/02 10:52:40;;;;;;;23.83;13.00;;;;;;;;;;5054712;28;20398;-66
2022/03/02 10:55:10;;;;;;;18.00;12.53;;;;;;;;;;5054906;28;20418;-66
2022/03/02 10:57:37;;;;;;;19.07;12.97;;;;;;;;;;5054704;28;20436;-66
2022/03/02 11:00:11;;;;;;;16.20;12.03;;;;;;;;;;5054802;28;20912;-68
2022/03/02 11:02:40;;;;;;;18.40;12.80;;;;;;;;;;5054842;28;20487;-61
2022/03/02 11:05:09;;;;;;;25.07;14.83;;;;;;;;;;5054427;28;21011;-60
2022/03/02 11:07:36;;;;;;;21.93;14.20;;;;;;;;;;5054653;28;20495;-62
2022/03/02 11:10:03;;;;;;;24.40;16.03;;;;;;;;;;5054773;28;20418;-60
2022/03/02 11:12:30;;;;;;;29.77;15.70;;;;;;;;;;5054440;28;20405;-69
2022/03/02 11:14:57;;;;;;;20.00;12.70;;;;;;;;;;5053189;28;20917;-72
2022/03/02 11:17:23;;;;;;;21.53;15.27;;;;;;;;;;5053510;28;20521;-75
2022/03/02 11:19:49;;;;;;;25.20;15.10;;;;;;;;;;5054645;28;20451;-71
2022/03/02 11:22:17;;;;;;;24.93;15.30;;;;;;;;;;5054641;28;20459;-70
2022/03/02 11:24:44;;;;;;;22.83;14.73;;;;;;;;;;5054448;28;20564;-68
2022/03/02 11:27:26;;;;;;;26.07;16.00;;;;;;;;;;5054174;28;20467;-73
2022/03/02 11:30:08;;;;;;;24.07;15.23;;;;;;;;;;5054281;28;20413;-68
2022/03/02 11:32:35;;;;;;;22.43;13.93;;;;;;;;;;5053644;28;20405;-76
2022/03/02 11:35:03;;;;;;;23.20;14.07;;;;;;;;;;5054302;28;20789;-71
2022/03/02 11:37:31;;;;;;;23.80;15.10;;;;;;;;;;5054088;28;20410;-78
2022/03/02 11:39:57;;;;;;;29.53;15.60;;;;;;;;;;5054182;28;20767;-72
2022/03/02 11:42:30;;;;;;;20.73;13.00;;;;;;;;;;5036531;28;20923;-64
2022/03/02 11:44:57;;;;;;;21.77;14.20;;;;;;;;;;5054148;28;20475;-64
2022/03/02 11:47:24;;;;;;;22.00;14.70;;;;;;;;;;5053843;28;20921;-61
2022/03/02 11:49:51;;;;;;;21.73;15.03;;;;;;;;;;5053886;28;20459;-63
2022/03/02 11:52:27;;;;;;;18.30;13.63;;;;;;;;;;5053836;28;20410;-64
2022/03/02 11:54:53;;;;;;;23.13;13.90;;;;;;;;;;5053866;28;20405;-64
2022/03/02 11:57:21;;;;;;;20.10;13.77;;;;;;;;;;5052652;28;20433;-62
2022/03/02 11:59:47;;;;;;;20.80;12.80;;;;;;;;;;5053656;28;20475;-68
2022/03/02 12:02:14;;;;;;;18.30;13.87;;;;;;;;;;5053760;28;20408;-61
2022/03/02 12:04:41;;;;;;;20.13;13.10;;;;;;;;;;5053788;28;20469;-78
2022/03/02 12:07:08;;;;;;;24.73;13.07;;;;;;;;;;5053563;28;20776;-76
2022/03/02 12:09:39;;;;;;;22.27;13.30;;;;;;;;;;5053665;28;20423;-77
2022/03/02 12:12:22;;;;;;;23.50;14.53;;;;;;;;;;5053381;28;20410;-70
2022/03/02 12:14:56;;;;;;;23.77;14.40;;;;;;;;;;5053472;28;20417;-77
2022/03/02 12:17:33;;;;;;;20.60;13.57;;;;;;;;;;5053457;28;20509;-75
2022/03/02 12:20:05;;;;;;;20.50;14.03;;;;;;;;;;5053426;28;20869;-77
2022/03/02 12:22:39;;;;;;;21.00;13.47;;;;;;;;;;5053844;28;20928;-76
2022/03/02 12:25:06;;;;;;;23.87;13.27;;;;;;;;;;5053930;28;20521;-77
2022/03/02 12:27:32;;;;;;;25.43;13.77;;;;;;;;;;5053608;28;20791;-74
2022/03/02 12:30:00;;;;;;;19.83;12.70;;;;;;;;;;5053905;28;20397;-72
2022/03/02 12:32:28;;;;;;;19.70;13.17;;;;;;;;;;5053057;28;20409;-74
2022/03/02 12:34:55;;;;;;;20.27;14.17;;;;;;;;;;5053324;28;20419;-66
2022/03/02 12:37:21;;;;;;;22.20;13.10;;;;;;;;;;5051868;28;20414;-73
2022/03/02 12:39:48;;;;;;;24.00;13.73;;;;;;;;;;5053255;28;20401;-72
2022/03/02 12:42:15;;;;;;;17.13;12.50;;;;;;;;;;5051902;28;20399;-71
2022/03/02 12:44:43;;;;;;;21.57;13.53;;;;;;;;;;5051131;28;20518;-64
2022/03/02 12:47:10;;;;;;;21.20;14.73;;;;;;;;;;5052256;28;20398;-68
2022/03/02 12:49:38;;;;;;;21.80;13.73;;;;;;;;;;5053657;28;20417;-66
2022/03/02 12:52:06;;;;;;;23.47;13.27;;;;;;;;;;5053156;28;20425;-62
2022/03/02 12:54:41;;;;;;;19.10;12.10;;;;;;;;;;5053254;28;20488;-68
2022/03/02 12:57:08;;;;;;;21.53;13.60;;;;;;;;;;5053037;28;20420;-63
2022/03/02 12:59:34;;;;;;;19.67;12.30;;;;;;;;;;5053038;28;20900;-63
2022/03/02 13:02:04;;;;;;;22.90;13.63;;;;;;;;;;5052875;28;20523;-75
2022/03/02 13:04:48;;;;;;;20.40;12.47;;;;;;;;;;5052958;28;20515;-70
2022/03/02 13:07:37;;;;;;;18.00;12.20;;;;;;;;;;5053038;28;20509;-77
2022/03/02 13:10:05;;;;;;;18.23;11.30;;;;;;;;;;5052991;28;20938;-74
2022/03/02 13:12:31;;;;;;;15.40;10.10;;;;;;;;;;5052671;28;20934;-67
2022/03/02 13:14:58;;;;;;;19.53;11.73;;;;;;;;;;5052883;28;20420;-73
2022/03/02 13:17:25;;;;;;;17.27;11.97;;;;;;;;;;5052908;28;20410;-72
2022/03/02 13:19:51;;;;;;;17.17;11.10;;;;;;;;;;5053021;28;20410;-73
2022/03/02 13:22:36;;;;;;;16.30;10.80;;;;;;;;;;5052701;28;20410;-73
2022/03/02 13:25:06;;;;;;;17.03;10.60;;;;;;;;;;5051693;28;20480;-77
2022/03/02 13:27:33;;;;;;;18.47;11.30;;;;;;;;;;5052716;28;20457;-74
2022/03/02 13:30:00;;;;;;;18.23;11.20;;;;;;;;;;5052731;28;20413;-77
2022/03/02 13:32:52;;;;;;;16.80;11.43;;;;;;;;;;5052516;28;20466;-74
2022/03/02 13:35:18;;;;;;;19.97;11.53;;;;;;;;;;5052784;28;20775;-72
2022/03/02 13:37:56;;;;;;;17.77;12.50;;;;;;;;;;5052650;28;20509;-73
2022/03/02 13:40:34;;;;;;;18.03;11.03;;;;;;;;;;5051353;28;20444;-76
2022/03/02 13:43:06;;;;;;;14.27;9.90;;;;;;;;;;5052631;28;20417;-68
2022/03/02 13:45:34;;;;;;;17.47;11.47;;;;;;;;;;5052465;28;20467;-71
2022/03/02 13:48:19;;;;;;;15.67;10.90;;;;;;;;;;5052517;28;20398;-67
2022/03/02 13:51:04;;;;;;;17.97;11.43;;;;;;;;;;5052305;28;20421;-63
2022/03/02 13:53:34;;;;;;;18.70;10.77;;;;;;;;;;5052368;28;20757;-67
2022/03/02 13:56:03;;;;;;;17.50;10.37;;;;;;;;;;5053764;28;20443;-61
2022/03/02 13:58:29;;;;;;;16.93;11.60;;;;;;;;;;5055961;28;20414;-64
2022/03/02 14:01:10;;;;;;;16.33;11.60;;;;;;;;;;5056187;28;20414;-62
2022/03/02 14:03:39;;;;;;;19.10;11.50;;;;;;;;;;5056080;28;20406;-74
2022/03/02 14:06:06;;;;;;;15.70;10.87;;;;;;;;;;5055780;28;20535;-77
2022/03/02 14:08:53;;;;;;;17.97;11.63;;;;;;;;;;5054582;28;20410;-76
2022/03/02 14:11:28;;;;;;;15.63;11.30;;;;;;;;;;5055611;28;20394;-70
2022/03/02 14:13:54;;;;;;;20.80;12.43;;;;;;;;;;5054463;28;20448;-76
2022/03/02 14:16:20;;;;;;;15.63;11.07;;;;;;;;;;5054688;28;20433;-77
2022/03/02 14:18:47;;;;;;;15.07;10.67;;;;;;;;;;5055897;28;20456;-78